KDFI/DFI METAR and TAF weather

Enter ICAO airport designator
Station Type Date Time Source
KDFI METAR 2020/12/05 04:53 UTC NOAA

KDFI 050453Z AUTO 31005KT 10SM OVC034 02/M02 A2997 RMK AO2 SLP155 T00171017 400940006


Station Type Date Time Source
KDFI Decoded METAR 2020/12/05 04:53 UTC NOAA

DEFIANCE MEMORIAL AIRPORT, OH, United States (KDFI) 41-20N 84-26W 219M
Dec 04, 2020 - 11:53 PM EST / 2020.12.05 0453 UTC
Wind: from the NW (310 degrees) at 6 MPH (5 KT):0
Visibility: 10 mile(s):0
Sky conditions: overcast
Temperature: 35.1 F (1.7 C)
Dew Point: 28.9 F (-1.7 C)
Relative Humidity: 78%
Pressure (altimeter): 29.97 in. Hg (1014 hPa)
ob: KDFI 050453Z AUTO 31005KT 10SM OVC034 02/M02 A2997 RMK AO2 SLP155 T00171017 400940006
cycle: 5

Station Type Date Time Source
KDFI TAF UTC NOAA

Error!

Example: see airport list